Time;durP1;ratioP1;P1;durP2;ratioP2;P2;SDS_P1;SDS_P2;PMS_P1;PMS_P2;Temp;Humidity;BMP_temperature;BMP_pressure;BME280_temperature;BME280_humidity;BME280_pressure;Samples;Min_cycle;Max_cycle;Signal;HPM_P1;HPM_P2
2023/12/14 00:00:40;;;;;;;711.17;335.33;;;;;;;7.16;100.00;96789.28;5034941;28;20043;-53
2023/12/14 00:03:05;;;;;;;677.90;336.08;;;;;;;7.16;100.00;96789.28;5035139;28;20029;-52
2023/12/14 00:05:30;;;;;;;625.45;331.80;;;;;;;7.29;100.00;96800.38;5035501;28;20040;-52
2023/12/14 00:07:56;;;;;;;608.40;325.85;;;;;;;7.22;100.00;96798.72;5035653;28;20061;-53
2023/12/14 00:10:21;;;;;;;619.83;327.13;;;;;;;7.25;100.00;96803.00;5036038;28;20488;-53
2023/12/14 00:12:46;;;;;;;648.25;329.83;;;;;;;7.32;100.00;96798.63;5038330;28;20416;-53
2023/12/14 00:15:12;;;;;;;577.88;323.48;;;;;;;7.23;100.00;96807.31;5036397;28;20113;-52
2023/12/14 00:17:37;;;;;;;649.47;324.13;;;;;;;7.25;100.00;96803.00;5034640;28;20028;-54
2023/12/14 00:20:03;;;;;;;586.00;322.50;;;;;;;7.49;100.00;96812.25;5036669;28;20093;-52
2023/12/14 00:22:28;;;;;;;629.13;329.42;;;;;;;7.48;100.00;96820.03;5036219;28;20024;-52
2023/12/14 00:24:53;;;;;;;600.83;324.40;;;;;;;7.37;100.00;96812.38;5037500;28;20131;-53
2023/12/14 00:27:19;;;;;;;586.83;321.38;;;;;;;7.16;100.00;96812.56;5036859;28;20041;-53
2023/12/14 00:29:44;;;;;;;708.72;333.90;;;;;;;6.83;100.00;96816.28;5035274;28;20017;-51
2023/12/14 00:32:09;;;;;;;597.55;320.58;;;;;;;7.02;100.00;96827.34;5036999;28;20580;-52
2023/12/14 00:34:35;;;;;;;609.63;321.98;;;;;;;7.21;100.00;96824.59;5035869;28;20039;-52
2023/12/14 00:37:00;;;;;;;572.60;318.40;;;;;;;7.14;100.00;96832.41;5036370;28;20590;-51
2023/12/14 00:39:25;;;;;;;606.13;321.80;;;;;;;7.09;100.00;96831.56;5036472;28;20024;-52
2023/12/14 00:41:51;;;;;;;652.03;322.63;;;;;;;7.30;100.00;96834.84;5035298;28;20500;-52
2023/12/14 00:44:16;;;;;;;575.20;316.92;;;;;;;7.37;100.00;96838.25;5037187;28;20032;-53
2023/12/14 00:46:41;;;;;;;658.53;326.77;;;;;;;7.21;100.00;96840.09;5034925;28;20128;-53
2023/12/14 00:49:07;;;;;;;632.47;328.67;;;;;;;7.38;100.00;96852.88;5036791;28;20052;-54
2023/12/14 00:51:33;;;;;;;595.65;321.05;;;;;;;7.29;100.00;96857.28;5036105;28;20268;-53
2023/12/14 00:53:58;;;;;;;619.85;321.95;;;;;;;7.39;100.00;96857.22;5037164;28;20040;-55
2023/12/14 00:56:23;;;;;;;585.85;322.30;;;;;;;7.25;100.00;96858.19;5034594;28;20476;-51
2023/12/14 00:58:49;;;;;;;570.63;317.98;;;;;;;7.28;100.00;96865.91;5035732;28;20571;-53
2023/12/14 01:01:14;;;;;;;580.85;305.95;;;;;;;7.41;100.00;96858.91;5038351;28;20304;-52
2023/12/14 01:03:39;;;;;;;704.58;317.17;;;;;;;7.39;100.00;96870.97;5035683;28;20527;-54
2023/12/14 01:06:06;;;;;;;551.85;303.08;;;;;;;7.36;100.00;96872.75;5036928;28;20556;-52
2023/12/14 01:08:31;;;;;;;632.50;317.00;;;;;;;7.35;100.00;96877.03;5036345;28;20329;-53
2023/12/14 01:10:57;;;;;;;605.42;315.92;;;;;;;7.37;100.00;96885.66;5035454;28;20044;-53
2023/12/14 01:13:22;;;;;;;550.65;311.25;;;;;;;7.45;100.00;96885.59;5036629;28;20103;-53
2023/12/14 01:15:48;;;;;;;689.22;323.33;;;;;;;7.40;100.00;96885.66;5034195;28;20033;-52
2023/12/14 01:18:13;;;;;;;592.95;318.33;;;;;;;7.49;100.00;96899.34;5036054;28;20120;-52
2023/12/14 01:20:39;;;;;;;634.83;325.10;;;;;;;7.43;100.00;96900.28;5034373;28;20037;-51
2023/12/14 01:23:04;;;;;;;618.25;323.23;;;;;;;7.38;100.00;96902.03;5035192;28;20031;-51
2023/12/14 01:25:29;;;;;;;636.28;324.75;;;;;;;7.32;100.00;96902.97;5034900;28;20065;-53
2023/12/14 01:27:55;;;;;;;564.70;318.35;;;;;;;7.38;100.00;96908.06;5035253;28;20136;-53
2023/12/14 01:30:20;;;;;;;619.35;324.67;;;;;;;7.39;100.00;96903.78;5035278;28;20056;-53
2023/12/14 01:32:45;;;;;;;704.10;333.92;;;;;;;7.34;100.00;96905.50;5036758;28;20021;-53
2023/12/14 01:35:11;;;;;;;594.63;324.20;;;;;;;7.39;100.00;96914.13;5038263;28;20119;-52
2023/12/14 01:37:36;;;;;;;614.67;328.67;;;;;;;7.33;100.00;96917.59;5039017;28;20120;-53
2023/12/14 01:40:01;;;;;;;581.70;328.23;;;;;;;7.31;100.00;96919.31;5039157;28;20110;-52
2023/12/14 01:42:27;;;;;;;589.88;320.70;;;;;;;7.31;100.00;96918.50;5038575;28;20229;-52
2023/12/14 01:44:52;;;;;;;682.15;335.65;;;;;;;7.32;100.00;96923.66;5038833;28;20025;-52
2023/12/14 01:47:18;;;;;;;613.88;328.50;;;;;;;7.33;100.00;96920.19;5040355;28;20148;-53
2023/12/14 01:49:43;;;;;;;647.05;328.10;;;;;;;7.29;100.00;96924.53;5038755;28;20033;-52
2023/12/14 01:52:08;;;;;;;590.67;322.05;;;;;;;7.39;100.00;96920.13;5040566;28;20029;-53
2023/12/14 01:54:34;;;;;;;644.55;330.73;;;;;;;7.26;100.00;96924.56;5040471;28;20543;-53
2023/12/14 01:56:59;;;;;;;599.65;323.35;;;;;;;7.26;100.00;96932.31;5038365;28;20049;-52
2023/12/14 01:59:25;;;;;;;627.75;330.15;;;;;;;7.19;100.00;96950.47;5039632;28;20364;-53
2023/12/14 02:01:56;;;;;;;744.25;338.02;;;;;;;7.28;100.00;96934.88;5036213;28;20033;-53
2023/12/14 02:04:23;;;;;;;594.25;325.15;;;;;;;7.21;100.00;96952.19;5039018;28;20090;-53
2023/12/14 02:06:49;;;;;;;724.45;336.23;;;;;;;7.35;100.00;96948.63;5035992;28;20188;-52
2023/12/14 02:09:14;;;;;;;616.60;327.20;;;;;;;7.34;100.00;96949.47;5038868;28;20505;-52
2023/12/14 02:11:40;;;;;;;629.42;331.95;;;;;;;7.42;100.00;96955.47;5038139;28;20056;-53
2023/12/14 02:14:06;;;;;;;652.90;330.98;;;;;;;7.43;100.00;96960.63;5038000;28;20025;-52
2023/12/14 02:16:32;;;;;;;614.45;328.65;;;;;;;7.38;100.00;96962.41;5039022;28;20600;-52
2023/12/14 02:18:57;;;;;;;636.38;327.67;;;;;;;7.32;100.00;96970.22;5038788;28;20033;-52
2023/12/14 02:21:22;;;;;;;636.42;333.13;;;;;;;7.49;100.00;96961.44;5037565;28;20044;-53
2023/12/14 02:23:48;;;;;;;678.35;329.75;;;;;;;7.43;100.00;96963.22;5037786;28;20079;-53
2023/12/14 02:26:13;;;;;;;574.28;324.38;;;;;;;7.35;100.00;96971.91;5038084;28;20029;-50
2023/12/14 02:28:39;;;;;;;629.67;324.90;;;;;;;7.27;100.00;96970.22;5036299;28;20401;-52
2023/12/14 02:31:04;;;;;;;584.92;325.08;;;;;;;7.49;100.00;96975.25;5040816;28;20041;-52
2023/12/14 02:33:30;;;;;;;580.97;322.73;;;;;;;7.55;100.00;96976.94;5038332;28;20112;-52
2023/12/14 02:35:55;;;;;;;724.80;332.35;;;;;;;7.62;100.00;96981.22;5038245;28;20639;-55
2023/12/14 02:38:20;;;;;;;575.58;324.88;;;;;;;7.46;100.00;96982.19;5039381;28;20083;-55
2023/12/14 02:40:46;;;;;;;667.35;331.25;;;;;;;7.51;100.00;96990.75;5037470;28;20078;-55
2023/12/14 02:43:12;;;;;;;590.92;326.10;;;;;;;7.39;100.00;96994.31;5039584;28;20082;-55
2023/12/14 02:45:38;;;;;;;601.60;324.33;;;;;;;7.30;100.00;96995.22;5037590;28;20060;-53
2023/12/14 02:48:03;;;;;;;589.63;322.27;;;;;;;7.43;100.00;96999.44;5038816;28;20017;-53
2023/12/14 02:50:29;;;;;;;649.00;328.02;;;;;;;7.39;100.00;96997.72;5035983;28;20052;-54
2023/12/14 02:52:54;;;;;;;690.28;329.40;;;;;;;7.35;100.00;96993.44;5038509;28;20119;-53
2023/12/14 02:55:19;;;;;;;598.10;324.95;;;;;;;7.46;100.00;97001.13;5037718;28;20348;-52
2023/12/14 02:57:45;;;;;;;713.67;335.20;;;;;;;7.46;100.00;97001.13;5037765;28;20031;-51
2023/12/14 03:00:11;;;;;;;569.67;321.00;;;;;;;7.46;100.00;97018.41;5036728;28;20025;-52
2023/12/14 03:02:37;;;;;;;575.17;324.58;;;;;;;7.42;100.00;97010.66;5020709;28;20869;-52
2023/12/14 03:05:02;;;;;;;580.85;321.77;;;;;;;7.41;100.00;97021.88;5036946;28;20579;-50
2023/12/14 03:07:28;;;;;;;602.92;327.00;;;;;;;7.37;100.00;97027.06;5037465;28;20449;-52
2023/12/14 03:09:53;;;;;;;681.38;333.80;;;;;;;7.44;100.00;97023.59;5037311;28;20033;-52
2023/12/14 03:12:19;;;;;;;618.25;331.02;;;;;;;7.51;100.00;97027.00;5037359;28;20100;-54
2023/12/14 03:14:44;;;;;;;671.15;330.15;;;;;;;7.42;100.00;97028.75;5036810;28;20226;-55
2023/12/14 03:17:12;;;;;;;568.00;326.52;;;;;;;7.50;100.00;97031.28;5037401;28;20033;-54
2023/12/14 03:19:39;;;;;;;619.53;333.58;;;;;;;7.49;100.00;97031.31;5037406;28;20044;-50
2023/12/14 03:22:05;;;;;;;593.45;329.38;;;;;;;7.40;100.00;97040.00;5037244;28;20450;-53
2023/12/14 03:24:30;;;;;;;628.05;330.60;;;;;;;7.32;100.00;97040.06;5035468;28;20503;-55
2023/12/14 03:26:55;;;;;;;652.47;330.33;;;;;;;7.31;100.00;97035.72;5036588;28;20314;-53
2023/12/14 03:29:21;;;;;;;603.42;323.52;;;;;;;7.28;100.00;97043.53;5037629;28;20400;-54
2023/12/14 03:31:46;;;;;;;694.47;331.05;;;;;;;7.26;100.00;97042.66;5036361;28;20094;-53
2023/12/14 03:34:12;;;;;;;599.58;322.88;;;;;;;7.26;100.00;97048.69;5036436;28;20021;-55
2023/12/14 03:36:37;;;;;;;605.45;327.13;;;;;;;7.18;100.00;97053.03;5037112;28;20052;-50
2023/12/14 03:39:03;;;;;;;653.20;328.00;;;;;;;7.22;100.00;97053.88;5036495;28;20025;-51
2023/12/14 03:41:28;;;;;;;612.45;329.80;;;;;;;7.23;100.00;97060.75;5012194;28;20150;-52
2023/12/14 03:43:53;;;;;;;701.90;337.83;;;;;;;7.11;100.00;97054.81;5017761;28;20484;-53
2023/12/14 03:46:19;;;;;;;603.53;327.13;;;;;;;7.24;100.00;97070.25;5037552;28;20348;-52
2023/12/14 03:48:44;;;;;;;590.55;328.83;;;;;;;7.16;100.00;97073.75;5036385;28;20352;-53
2023/12/14 03:51:09;;;;;;;590.30;323.42;;;;;;;7.19;100.00;97083.19;5037376;28;20033;-53
2023/12/14 03:53:35;;;;;;;629.05;327.83;;;;;;;7.26;100.00;97086.63;5036570;28;20037;-52
2023/12/14 03:56:00;;;;;;;610.50;325.60;;;;;;;7.35;100.00;97093.50;5037323;28;20404;-52
2023/12/14 03:58:26;;;;;;;622.30;331.13;;;;;;;7.31;100.00;97102.97;5035411;28;20036;-51
2023/12/14 04:00:52;;;;;;;674.13;332.98;;;;;;;7.25;100.00;97097.84;5034234;28;20041;-52
2023/12/14 04:03:17;;;;;;;585.65;331.95;;;;;;;7.27;100.00;97103.84;5037289;28;20083;-53
2023/12/14 04:05:44;;;;;;;627.28;324.40;;;;;;;7.19;100.00;97109.06;5035895;28;20040;-52
2023/12/14 04:08:09;;;;;;;632.00;328.70;;;;;;;7.35;100.00;97117.63;5036212;28;20497;-51
2023/12/14 04:10:35;;;;;;;628.28;327.27;;;;;;;7.35;100.00;97117.63;5035432;28;20033;-52
2023/12/14 04:13:00;;;;;;;700.53;333.67;;;;;;;7.37;100.00;97120.19;5035699;28;20366;-53
2023/12/14 04:15:26;;;;;;;646.17;333.08;;;;;;;7.22;100.00;97123.72;5035579;28;20147;-52
2023/12/14 04:17:51;;;;;;;694.25;334.83;;;;;;;7.36;100.00;97127.13;5034938;28;20292;-52
2023/12/14 04:20:16;;;;;;;566.88;320.40;;;;;;;7.25;100.00;97127.16;5035019;28;20040;-53
2023/12/14 04:22:44;;;;;;;627.20;330.25;;;;;;;7.26;100.00;97135.75;5036126;28;20313;-53
2023/12/14 04:25:09;;;;;;;565.05;325.77;;;;;;;7.38;100.00;97130.53;5035968;28;20024;-52
2023/12/14 04:27:34;;;;;;;595.28;325.50;;;;;;;7.25;100.00;97142.69;5036614;28;20055;-53
2023/12/14 04:30:00;;;;;;;717.92;338.10;;;;;;;7.00;100.00;97145.34;5033788;28;20435;-52
2023/12/14 04:32:25;;;;;;;600.90;327.48;;;;;;;7.10;100.00;97148.75;5036766;28;20419;-54
2023/12/14 04:34:50;;;;;;;657.35;333.10;;;;;;;7.19;100.00;97153.03;5036120;28;20032;-53
2023/12/14 04:37:16;;;;;;;594.85;327.90;;;;;;;7.24;100.00;97156.47;5036036;28;20037;-53
2023/12/14 04:39:42;;;;;;;610.63;329.23;;;;;;;7.21;100.00;97163.38;5036485;28;20396;-53
2023/12/14 04:42:07;;;;;;;594.63;330.55;;;;;;;7.26;100.00;97161.63;5034871;28;20041;-52
2023/12/14 04:44:32;;;;;;;640.67;331.70;;;;;;;7.22;100.00;97170.25;5036982;28;20039;-51
2023/12/14 04:46:58;;;;;;;690.25;338.73;;;;;;;7.13;100.00;97168.56;5035580;28;20511;-53
2023/12/14 04:49:23;;;;;;;580.42;326.67;;;;;;;7.23;100.00;97169.38;5035749;28;20033;-52
2023/12/14 04:51:48;;;;;;;617.70;330.55;;;;;;;7.15;100.00;97175.47;5035012;28;20361;-53
2023/12/14 04:54:14;;;;;;;576.25;331.75;;;;;;;7.28;100.00;97185.78;5036627;28;20404;-52
2023/12/14 04:56:41;;;;;;;597.63;331.17;;;;;;;7.13;100.00;97197.88;5035648;28;20045;-53
2023/12/14 04:59:06;;;;;;;673.90;338.42;;;;;;;7.22;100.00;97190.94;5035850;28;20112;-53
2023/12/14 05:01:32;;;;;;;616.58;333.90;;;;;;;7.31;100.00;97203.00;5035176;28;20470;-53
2023/12/14 05:03:57;;;;;;;653.70;320.23;;;;;;;7.18;100.00;97199.59;5034927;28;20075;-52
2023/12/14 05:06:22;;;;;;;617.95;316.55;;;;;;;7.01;100.00;97205.66;5034161;28;20024;-53
2023/12/14 05:08:48;;;;;;;634.92;324.70;;;;;;;7.08;100.00;97209.06;5035010;28;20025;-53
2023/12/14 05:11:13;;;;;;;573.78;319.27;;;;;;;7.21;100.00;97207.34;5039785;28;20041;-52
2023/12/14 05:13:39;;;;;;;633.63;324.85;;;;;;;7.20;100.00;97211.63;5040947;28;20024;-51
2023/12/14 05:16:05;;;;;;;679.35;329.67;;;;;;;7.06;100.00;97211.69;5038846;28;20052;-52
2023/12/14 05:18:30;;;;;;;617.22;316.40;;;;;;;7.13;100.00;97213.38;5038194;28;20060;-52
2023/12/14 05:20:56;;;;;;;715.85;330.50;;;;;;;7.00;100.00;97212.56;5036987;28;20037;-51
2023/12/14 05:23:21;;;;;;;570.72;316.90;;;;;;;7.09;100.00;97221.16;5039583;28;20028;-53
2023/12/14 05:25:47;;;;;;;607.33;322.63;;;;;;;7.03;100.00;97227.19;5037718;28;20048;-53
2023/12/14 05:28:13;;;;;;;609.90;322.33;;;;;;;7.03;100.00;97227.19;5039433;28;20055;-51
2023/12/14 05:30:38;;;;;;;619.88;319.80;;;;;;;6.95;100.00;97226.34;5038012;28;20116;-52
2023/12/14 05:33:04;;;;;;;715.45;331.48;;;;;;;6.94;100.00;97237.56;5038857;28;20029;-52
2023/12/14 05:35:29;;;;;;;634.85;326.08;;;;;;;6.81;100.00;97253.06;5039614;28;20083;-53
2023/12/14 05:37:54;;;;;;;706.30;331.17;;;;;;;6.78;100.00;97250.47;5038990;28;20589;-52
2023/12/14 05:40:20;;;;;;;576.75;322.73;;;;;;;6.83;100.00;97251.34;5038729;28;20040;-53
2023/12/14 05:42:45;;;;;;;632.40;326.83;;;;;;;6.89;100.00;97253.94;5038202;28;20075;-52
2023/12/14 05:45:10;;;;;;;582.33;322.65;;;;;;;6.95;100.00;97254.78;5036620;28;20124;-52
2023/12/14 05:47:37;;;;;;;595.15;326.40;;;;;;;6.96;100.00;97269.44;5038013;28;20384;-51
2023/12/14 05:50:03;;;;;;;747.00;336.15;;;;;;;7.06;100.00;97271.16;5035840;28;20552;-53
2023/12/14 05:52:29;;;;;;;596.50;322.10;;;;;;;7.13;100.00;97274.59;5013648;28;20031;-52
2023/12/14 05:54:54;;;;;;;717.88;339.73;;;;;;;7.20;100.00;97278.03;5038876;28;20029;-52
2023/12/14 05:57:19;;;;;;;620.60;326.70;;;;;;;7.16;100.00;97279.75;5020939;28;20450;-53
2023/12/14 05:59:45;;;;;;;582.78;324.40;;;;;;;7.01;100.00;97280.63;5039087;28;20099;-51
2023/12/14 06:02:10;;;;;;;598.00;328.92;;;;;;;6.97;100.00;97284.94;5037596;28;20044;-52
2023/12/14 06:04:35;;;;;;;632.83;332.63;;;;;;;6.94;100.00;97284.09;5039175;28;20039;-54
2023/12/14 06:07:01;;;;;;;691.78;337.23;;;;;;;6.75;100.00;97291.81;5037939;28;20044;-52
2023/12/14 06:09:33;;;;;;;610.75;331.45;;;;;;;6.73;100.00;97297.00;5037480;28;20033;-52
2023/12/14 06:12:02;;;;;;;712.83;340.55;;;;;;;6.73;100.00;97306.47;5038222;28;20642;-51
2023/12/14 06:14:28;;;;;;;635.03;329.02;;;;;;;6.74;100.00;97303.91;5038493;28;20029;-52
2023/12/14 06:16:54;;;;;;;723.97;338.40;;;;;;;6.73;100.00;97316.81;5017785;28;20065;-51
2023/12/14 06:19:19;;;;;;;621.35;334.33;;;;;;;6.61;100.00;97323.69;5037673;28;20114;-53
2023/12/14 06:21:44;;;;;;;583.13;330.90;;;;;;;6.62;100.00;97320.25;5038822;28;20452;-53
2023/12/14 06:24:10;;;;;;;620.63;329.73;;;;;;;6.60;100.00;97327.13;5037166;28;20056;-52
2023/12/14 06:26:40;;;;;;;598.88;329.80;;;;;;;6.56;100.00;97333.16;5037272;28;20035;-53
2023/12/14 06:29:05;;;;;;;664.47;335.15;;;;;;;6.63;100.00;97331.44;5037615;28;20398;-53
2023/12/14 06:31:30;;;;;;;704.00;341.45;;;;;;;6.63;100.00;97334.03;5035253;28;20436;-53
2023/12/14 06:33:57;;;;;;;686.13;337.33;;;;;;;6.65;100.00;97337.50;5037234;28;20370;-52
2023/12/14 06:36:26;;;;;;;590.20;333.88;;;;;;;6.61;100.00;97336.59;5035923;28;20045;-52
2023/12/14 06:38:52;;;;;;;638.28;336.38;;;;;;;6.66;100.00;97340.91;5036004;28;20626;-52
2023/12/14 06:41:21;;;;;;;590.80;332.38;;;;;;;6.71;100.00;97346.94;5037767;28;20040;-52
2023/12/14 06:43:47;;;;;;;602.70;332.95;;;;;;;6.71;100.00;97349.53;5037387;28;20031;-53
2023/12/14 06:46:12;;;;;;;570.13;300.20;;;;;;;6.64;100.00;97352.13;5037149;28;20404;-52
2023/12/14 06:48:38;;;;;;;593.70;310.90;;;;;;;6.60;100.00;97358.13;5038009;28;20139;-53
2023/12/14 06:51:03;;;;;;;690.05;303.63;;;;;;;6.67;100.00;97368.47;5034397;28;20413;-52
2023/12/14 06:53:29;;;;;;;570.47;301.35;;;;;;;6.53;100.00;97369.31;5037264;28;20110;-51
2023/12/14 06:55:55;;;;;;;659.10;308.23;;;;;;;6.54;100.00;97376.22;5035747;28;20036;-53
2023/12/14 06:58:20;;;;;;;614.75;319.58;;;;;;;6.62;100.00;97384.88;5038312;28;20028;-54
2023/12/14 07:00:45;;;;;;;566.58;312.35;;;;;;;6.61;100.00;97385.69;5035788;28;20752;-53
2023/12/14 07:03:11;;;;;;;561.55;315.55;;;;;;;6.63;100.00;97393.47;5035732;28;20029;-54
2023/12/14 07:05:36;;;;;;;615.33;322.08;;;;;;;6.57;100.00;97399.47;5036150;28;20061;-52
2023/12/14 07:08:01;;;;;;;690.03;320.27;;;;;;;6.65;100.00;97407.25;5036800;28;20086;-53
2023/12/14 07:10:27;;;;;;;594.25;322.83;;;;;;;6.74;100.00;97415.03;5037339;28;20040;-53
2023/12/14 07:12:52;;;;;;;609.47;321.63;;;;;;;6.82;100.00;97424.50;5035705;28;20029;-53
2023/12/14 07:15:18;;;;;;;567.00;319.23;;;;;;;6.82;100.00;97421.94;5037072;28;20292;-53
2023/12/14 07:17:43;;;;;;;600.85;322.10;;;;;;;6.93;100.00;97428.00;5036760;28;20451;-54
2023/12/14 07:20:10;;;;;;;750.20;338.25;;;;;;;6.95;100.00;97433.19;5035650;28;20055;-52
2023/12/14 07:22:35;;;;;;;614.80;328.38;;;;;;;6.93;100.00;97437.47;5036895;28;20685;-53
2023/12/14 07:25:00;;;;;;;742.47;337.58;;;;;;;6.76;100.00;97436.56;5036357;28;20037;-54
2023/12/14 07:27:26;;;;;;;603.78;329.13;;;;;;;6.92;100.00;97446.09;5035925;28;20052;-52
2023/12/14 07:29:51;;;;;;;594.45;328.52;;;;;;;6.97;100.00;97449.53;5037431;28;20017;-52
2023/12/14 07:32:16;;;;;;;582.20;326.15;;;;;;;6.97;100.00;97441.78;5034794;28;20130;-53
2023/12/14 07:34:42;;;;;;;614.67;325.17;;;;;;;6.98;100.00;97454.72;5035341;28;20025;-53
2023/12/14 07:37:07;;;;;;;707.35;339.05;;;;;;;6.93;100.00;97458.16;5035598;28;20507;-54
2023/12/14 07:39:33;;;;;;;613.63;328.00;;;;;;;6.98;100.00;97459.88;5036016;28;20654;-52
2023/12/14 07:42:00;;;;;;;753.58;344.88;;;;;;;6.88;100.00;97465.91;5035852;28;20435;-52
2023/12/14 07:44:25;;;;;;;578.05;332.15;;;;;;;6.95;100.00;97474.53;5036319;28;20454;-52
2023/12/14 07:46:51;;;;;;;545.22;323.02;;;;;;;6.89;100.00;97465.91;5036724;28;20575;-51
2023/12/14 07:49:22;;;;;;;625.92;332.25;;;;;;;6.88;100.00;97477.13;5017714;28;20028;-53
2023/12/14 07:51:47;;;;;;;586.53;326.92;;;;;;;6.96;100.00;97481.44;5034670;28;20025;-53
2023/12/14 07:54:13;;;;;;;729.75;338.80;;;;;;;6.94;100.00;97478.00;5035096;28;20486;-53
2023/12/14 07:56:38;;;;;;;642.03;327.08;;;;;;;6.96;100.00;97487.47;5035507;28;20200;-53
2023/12/14 07:59:07;;;;;;;726.08;336.17;;;;;;;7.10;100.00;97487.53;5034044;28;20555;-53
2023/12/14 08:01:32;;;;;;;617.90;329.92;;;;;;;6.97;100.00;97490.91;5030667;28;20041;-53
2023/12/14 08:03:58;;;;;;;619.03;329.90;;;;;;;7.16;100.00;97495.28;5036597;28;20249;-53
2023/12/14 08:06:23;;;;;;;558.92;326.98;;;;;;;6.98;100.00;97503.00;5039512;28;20037;-54
2023/12/14 08:08:48;;;;;;;548.30;326.55;;;;;;;6.95;100.00;97503.84;5040535;28;20075;-51
2023/12/14 08:11:14;;;;;;;657.88;337.90;;;;;;;6.90;100.00;97514.16;5038777;28;20032;-52
2023/12/14 08:13:40;;;;;;;538.33;308.27;;;;;;;6.99;100.00;97510.75;5040589;28;20036;-52
2023/12/14 08:16:06;;;;;;;674.28;322.67;;;;;;;6.99;100.00;97515.94;5038910;28;20044;-53
2023/12/14 08:18:32;;;;;;;591.65;323.98;;;;;;;7.08;100.00;97522.84;5040139;28;20028;-53
2023/12/14 08:20:57;;;;;;;552.58;293.52;;;;;;;7.26;100.00;97522.03;5007427;28;20079;-53
2023/12/14 08:23:23;;;;;;;531.40;282.88;;;;;;;7.47;100.00;97533.28;5040099;28;20017;-53
2023/12/14 08:25:48;;;;;;;540.97;294.80;;;;;;;7.28;100.00;97541.00;5039709;28;20033;-53
2023/12/14 08:28:14;;;;;;;668.80;309.13;;;;;;;7.28;100.00;97535.81;5018073;28;20572;-54
2023/12/14 08:30:39;;;;;;;545.95;300.30;;;;;;;7.29;100.00;97536.69;5037218;28;20044;-53
2023/12/14 08:33:05;;;;;;;691.30;324.38;;;;;;;7.26;100.00;97541.84;5038763;28;20033;-52
2023/12/14 08:35:30;;;;;;;552.75;314.67;;;;;;;7.33;100.00;97542.72;5038397;28;20068;-52
2023/12/14 08:37:56;;;;;;;571.67;321.17;;;;;;;7.56;100.00;97550.53;5039615;28;20070;-53
2023/12/14 08:40:21;;;;;;;556.83;320.27;;;;;;;7.80;100.00;97538.50;5038867;28;20493;-52
2023/12/14 08:42:47;;;;;;;545.03;323.83;;;;;;;7.67;100.00;97546.25;5039286;28;20155;-54
2023/12/14 08:45:12;;;;;;;677.30;335.48;;;;;;;7.78;100.00;97558.34;5040588;28;20021;-53
2023/12/14 08:47:38;;;;;;;549.40;324.70;;;;;;;8.09;100.00;97568.69;5043574;28;20017;-53
2023/12/14 08:50:04;;;;;;;697.28;336.83;;;;;;;8.01;100.00;97568.72;5043522;28;20028;-52
2023/12/14 08:52:30;;;;;;;601.35;330.40;;;;;;;7.84;100.00;97568.72;5043221;28;20029;-53
2023/12/14 08:54:55;;;;;;;546.17;327.52;;;;;;;7.80;100.00;97573.00;5044411;28;20460;-54
2023/12/14 08:57:21;;;;;;;535.30;325.02;;;;;;;7.85;100.00;97578.19;5041891;28;20133;-53
2023/12/14 08:59:46;;;;;;;593.15;333.70;;;;;;;7.78;100.00;97579.94;5042458;28;20032;-53
2023/12/14 09:02:12;;;;;;;685.03;337.55;;;;;;;7.65;100.00;97576.44;5042057;28;20036;-53
2023/12/14 09:04:37;;;;;;;573.63;333.77;;;;;;;7.84;100.00;97592.03;5043059;28;20021;-53
2023/12/14 09:07:04;;;;;;;695.47;340.95;;;;;;;7.85;100.00;97595.47;5040086;28;20040;-53
2023/12/14 09:09:29;;;;;;;570.33;333.95;;;;;;;7.67;100.00;97605.78;5043242;28;20024;-53
2023/12/14 09:11:54;;;;;;;571.67;337.98;;;;;;;7.92;100.00;97613.63;5041858;28;20044;-53
2023/12/14 09:14:20;;;;;;;606.58;332.65;;;;;;;7.86;100.00;97604.94;5041961;28;20464;-53
2023/12/14 09:16:46;;;;;;;529.88;330.98;;;;;;;7.79;100.00;97614.44;5042027;28;20053;-53
2023/12/14 09:19:11;;;;;;;706.92;345.88;;;;;;;8.05;100.00;97614.47;5041985;28;20063;-53
2023/12/14 09:21:37;;;;;;;583.97;335.23;;;;;;;8.26;100.00;97623.13;5043202;28;20041;-52
2023/12/14 09:24:03;;;;;;;588.03;331.75;;;;;;;8.24;100.00;97622.25;5042518;28;20071;-53
2023/12/14 09:26:28;;;;;;;573.95;335.40;;;;;;;8.28;100.00;97631.75;5042251;28;20089;-53
2023/12/14 09:28:53;;;;;;;611.13;339.48;;;;;;;8.55;100.00;97632.66;5042986;28;20032;-53
2023/12/14 09:31:19;;;;;;;584.10;332.08;;;;;;;8.56;100.00;97641.28;5039110;28;20110;-52
2023/12/14 09:33:44;;;;;;;561.58;334.65;;;;;;;8.39;100.00;97646.44;5025342;28;20523;-51
2023/12/14 09:36:09;;;;;;;689.60;345.73;;;;;;;8.60;100.00;97643.00;5041880;28;20041;-53
2023/12/14 09:38:36;;;;;;;616.05;338.08;;;;;;;8.38;100.00;97642.13;5042128;28;20035;-53
2023/12/14 09:41:02;;;;;;;578.10;337.15;;;;;;;8.13;100.00;97642.13;5041896;28;20041;-54
2023/12/14 09:43:27;;;;;;;657.30;344.35;;;;;;;8.15;100.00;97642.97;5042288;28;20542;-53
2023/12/14 09:45:55;;;;;;;581.58;334.95;;;;;;;8.34;100.00;97649.03;5042207;28;20064;-52
2023/12/14 09:48:22;;;;;;;715.53;338.38;;;;;;;8.38;100.00;97657.69;5041289;28;20048;-53
2023/12/14 09:50:49;;;;;;;602.55;339.77;;;;;;;8.38;100.00;97653.34;5041997;28;20041;-52
2023/12/14 09:53:14;;;;;;;649.85;339.15;;;;;;;8.62;100.00;97662.03;5040295;28;20488;-53
2023/12/14 09:55:40;;;;;;;585.00;338.52;;;;;;;8.46;100.00;97668.88;5041268;28;20052;-52
2023/12/14 09:58:06;;;;;;;668.80;343.42;;;;;;;8.34;100.00;97662.84;5040131;28;20790;-53
2023/12/14 10:00:36;;;;;;;593.00;343.85;;;;;;;8.20;100.00;97667.16;5041061;28;20037;-52
2023/12/14 10:03:26;;;;;;;619.55;352.77;;;;;;;6.64;100.00;97672.56;5041347;28;20021;-53
2023/12/14 10:05:53;;;;;;;576.03;352.20;;;;;;;6.51;100.00;97683.66;5041089;28;20041;-51
2023/12/14 10:08:18;;;;;;;760.28;365.23;;;;;;;6.50;100.00;97689.69;5039775;28;20550;-52
2023/12/14 10:10:46;;;;;;;557.55;349.02;;;;;;;6.45;100.00;97697.38;5040640;28;20041;-53
2023/12/14 10:13:12;;;;;;;681.95;368.08;;;;;;;6.41;100.00;97698.22;5040395;28;20400;-53
2023/12/14 10:15:46;;;;;;;640.15;365.70;;;;;;;6.43;100.00;97690.47;5041485;28;20504;-53
2023/12/14 10:18:17;;;;;;;636.92;362.88;;;;;;;6.28;100.00;97699.84;5041268;28;20029;-52
2023/12/14 10:20:45;;;;;;;593.78;359.90;;;;;;;6.32;100.00;97698.13;5039179;28;20025;-52
2023/12/14 10:23:10;;;;;;;651.00;361.20;;;;;;;6.23;100.00;97694.63;5040277;28;20441;-52
2023/12/14 10:25:35;;;;;;;570.13;361.95;;;;;;;6.21;100.00;97695.47;5040657;28;20527;-52
2023/12/14 10:28:02;;;;;;;601.10;359.48;;;;;;;6.21;100.00;97695.47;5041925;28;20485;-53
2023/12/14 10:30:28;;;;;;;537.25;342.98;;;;;;;6.32;100.00;97703.31;5039163;28;25816;-53
2023/12/14 10:32:54;;;;;;;554.30;346.45;;;;;;;6.95;100.00;97702.94;5042325;28;20476;-52
2023/12/14 10:35:21;;;;;;;663.53;351.45;;;;;;;7.33;100.00;97706.59;5039472;28;20039;-53
2023/12/14 10:37:49;;;;;;;547.95;337.95;;;;;;;7.73;100.00;97702.44;5044025;28;20030;-53
2023/12/14 10:40:15;;;;;;;622.70;346.80;;;;;;;7.93;100.00;97700.78;5039292;28;20500;-54
2023/12/14 10:42:44;;;;;;;595.58;337.33;;;;;;;8.23;100.00;97712.94;5040455;28;20035;-52
2023/12/14 10:45:13;;;;;;;693.78;348.15;;;;;;;8.35;100.00;97710.34;5040090;28;20025;-52
2023/12/14 10:47:43;;;;;;;584.00;337.15;;;;;;;8.61;100.00;97711.28;5039689;28;20071;-52
2023/12/14 10:50:11;;;;;;;684.97;350.67;;;;;;;8.81;100.00;97712.13;5040046;28;20464;-52
2023/12/14 10:52:39;;;;;;;560.40;335.85;;;;;;;8.88;100.00;97717.31;5041014;28;20575;-53
2023/12/14 10:55:08;;;;;;;602.72;338.35;;;;;;;8.76;100.00;97721.63;5041169;28;20171;-54